Quickborn, Germany

2:45 PM CEST on August 23, 2014 (GMT +0200)
Klgv. Quickborn | Change Station
CLOSE
Current Station
Personal Weather Station
Location: Quickborn, SCHLESWIG-HOLSTEIN
Elevation: 75 ft
Nearby Weather Stations

Elev 75 ft 53.72 °N, 9.90 °E | Updated 3 minutes ago

Scattered Clouds
Scattered Clouds
57.7 °F
Feels Like 57.7 °F
N
0.0
Wind Variable Wind from WSW
Gusts 4.0 mph

Today
High -- | Low -- °F
--% Chance of Precip.
Yesterday
High -- | Low -- °F
Precip. -- in
6:12 AM 8:32 PM
Waning Crescent, 4% visible
Pressure 29.83 in
Visibility 6.2 miles
Clouds Scattered Clouds 3400 ft
Dew Point 50 °F
Humidity 69%
Rainfall 0.02 in
Snow Depth Not available.
UV 5 out of 12
Pollen Not available.
Air Quality Not available.
Flu Activity Not available.
METAR EDDH 231220Z 33013KT 9999 SCT034TCU 15/09 Q1010 TEMPO 29015G25KT SHRA

More Conditions Fewer Conditions

Pressure 29.83 in
Visibility 6.2 miles
Clouds Scattered Clouds 3400 ft
Dew Point 50 °F
Humidity 69%
Rainfall 0.02 in
Snow Depth Not available.
UV 5 out of 12
Pollen Not available.
Air Quality Not available.
Flu Activity Not available.
METAR EDDH 231220Z 33013KT 9999 SCT034TCU 15/09 Q1010 TEMPO 29015G25KT SHRA

More Conditions Fewer Conditions

10-Day Weather Forecast

Almanac

Astronomy

Aug. 23, 2014 Rise Set
Actual Time 6:12 AM CEST 8:32 PM CEST
Civil Twilight 5:34 AM CEST 9:10 PM CEST
Nautical Twilight 4:45 AM CEST 9:59 PM CEST
Astronomical Twilight 3:46 AM CEST 10:56 PM CEST
Moon 4:06 AM CEST 7:10 PM CEST
Length of Visible Light 15h 36m
Length of Day
14h 19m
Tomorrow will be 4m 2s shorter.
Waning Crescent, 4% of the Moon is Illuminated
Today
Waning Crescent
Aug 25
New
Sep 2
First Quarter
Sep 8
Full
Sep 15
Last Quarter

Yesterday's Extremes

Country Highs Country Lows

Community

WunderPhotos

Upload Photos

1,746,435 photos uploaded!

WunderBlogs® & News

By Dr. Jeff Masters
Director of Meteorology, Weather Underground
By Kari Strenfel
Meteorologist, Weather Underground
By Christopher C. Burt
Weather Historian, Weather Underground
August 23, 2014
August 23, 2014
August 23, 2014

Nearby

Snow Depth

Not available.

Earthquake Activity

City Distance Mag. Time & Date
No recent earthquake activity has been reported nearby.
Minimum magnitude displayed is 2.5.

Coastal Water Temperatures

Place Temperature
No Stations Reporting

Nearby Weather Stations